Time;durP1;ratioP1;P1;durP2;ratioP2;P2;SDS_P1;SDS_P2;PMS_P1;PMS_P2;Temp;Humidity;BMP_temperature;BMP_pressure;BME280_temperature;BME280_humidity;BME280_pressure;Samples;Min_cycle;Max_cycle;Signal;HPM_P1;HPM_P2
2023/12/03 00:02:02;;;;;;;;;;;;;;;;;;4959331;28;89417;-64
2023/12/03 00:04:28;;;;;;;;;;;;;;;;;;4968562;28;89235;-63
2023/12/03 00:06:53;;;;;;;;;;;;;;;;;;4968711;28;89428;-63
2023/12/03 00:09:18;;;;;;;;;;;;;;;;;;4963547;28;89323;-63
2023/12/03 00:11:44;;;;;;;;;;;;;;;;;;4948424;28;89506;-63
2023/12/03 00:14:09;;;;;;;;;;;;;;;;;;4966219;28;89756;-63
2023/12/03 00:16:34;;;;;;;;;;;;;;;;;;4968353;28;89289;-63
2023/12/03 00:18:59;;;;;;;;;;;;;;;;;;4968653;28;89042;-63
2023/12/03 00:21:24;;;;;;;;;;;;;;;;;;4952222;28;89662;-63
2023/12/03 00:23:50;;;;;;;;;;;;;;;;;;4954378;28;89232;-63
2023/12/03 00:26:15;;;;;;;;;;;;;;;;;;4966430;28;89752;-63
2023/12/03 00:28:40;;;;;;;;;;;;;;;;;;4967265;28;89245;-63
2023/12/03 00:31:06;;;;;;;;;;;;;;;;;;4968020;28;89758;-63
2023/12/03 00:33:31;;;;;;;;;;;;;;;;;;4967977;28;90036;-63
2023/12/03 00:35:59;;;;;;;;;;;;;;;;;;4971164;28;90059;-63
2023/12/03 00:38:24;;;;;;;;;;;;;;;;;;4968219;28;89094;-62
2023/12/03 00:40:49;;;;;;;;;;;;;;;;;;4967886;28;89532;-63
2023/12/03 00:43:14;;;;;;;;;;;;;;;;;;4968287;28;89788;-62
2023/12/03 00:45:39;;;;;;;;;;;;;;;;;;4967737;28;89325;-63
2023/12/03 00:48:05;;;;;;;;;;;;;;;;;;4967592;28;89600;-62
2023/12/03 00:50:30;;;;;;;;;;;;;;;;;;4967061;28;89261;-63
2023/12/03 00:52:55;;;;;;;;;;;;;;;;;;4968051;28;89035;-63
2023/12/03 00:55:20;;;;;;;;;;;;;;;;;;4967598;28;89533;-62
2023/12/03 00:57:45;;;;;;;;;;;;;;;;;;4970452;28;89372;-63
2023/12/03 01:00:11;;;;;;;;;;;;;;;;;;4967466;28;90920;-63
2023/12/03 01:02:36;;;;;;;;;;;;;;;;;;4960252;28;90398;-63
2023/12/03 01:05:01;;;;;;;;;;;;;;;;;;4967443;28;89021;-63
2023/12/03 01:07:27;;;;;;;;;;;;;;;;;;4967789;28;89558;-63
2023/12/03 01:09:52;;;;;;;;;;;;;;;;;;4962383;28;90337;-63
2023/12/03 01:12:17;;;;;;;;;;;;;;;;;;4947695;28;89489;-63
2023/12/03 01:14:43;;;;;;;;;;;;;;;;;;4966139;28;89474;-63
2023/12/03 01:17:08;;;;;;;;;;;;;;;;;;4967474;28;90166;-63
2023/12/03 01:19:33;;;;;;;;;;;;;;;;;;4970445;28;89262;-63
2023/12/03 01:21:59;;;;;;;;;;;;;;;;;;4967539;28;89083;-63
2023/12/03 01:24:24;;;;;;;;;;;;;;;;;;4967200;28;89075;-64
2023/12/03 01:26:49;;;;;;;;;;;;;;;;;;4967381;28;89430;-63
2023/12/03 01:29:14;;;;;;;;;;;;;;;;;;4967198;28;89394;-63
2023/12/03 01:31:40;;;;;;;;;;;;;;;;;;4966143;28;89228;-63
2023/12/03 01:34:05;;;;;;;;;;;;;;;;;;4967422;28;89624;-63
2023/12/03 01:36:30;;;;;;;;;;;;;;;;;;4967016;28;90408;-63
2023/12/03 01:38:56;;;;;;;;;;;;;;;;;;4968588;28;89668;-63
2023/12/03 01:41:21;;;;;;;;;;;;;;;;;;4976383;28;89522;-63
2023/12/03 01:43:50;;;;;;;;;;;;;;;;;;4973562;28;89380;-63
2023/12/03 01:46:15;;;;;;;;;;;;;;;;;;4973615;28;89717;-63
2023/12/03 01:48:43;;;;;;;;;;;;;;;;;;4973910;28;89584;-64
2023/12/03 01:51:09;;;;;;;;;;;;;;;;;;4975869;28;89000;-63
2023/12/03 01:53:35;;;;;;;;;;;;;;;;;;4993085;28;89437;-63
2023/12/03 01:56:01;;;;;;;;;;;;;;;;;;4993672;28;89131;-63
2023/12/03 01:58:26;;;;;;;;;;;;;;;;;;4993431;28;89372;-64
2023/12/03 02:00:51;;;;;;;;;;;;;;;;;;4995964;28;88986;-63
2023/12/03 02:03:17;;;;;;;;;;;;;;;;;;4992635;28;89465;-63
2023/12/03 02:05:47;;;;;;;;;;;;;;;;;;4992719;28;89636;-63
2023/12/03 02:08:12;;;;;;;;;;;;;;;;;;4992678;28;89346;-64
2023/12/03 02:10:37;;;;;;;;;;;;;;;;;;4992837;28;89088;-63
2023/12/03 02:13:02;;;;;;;;;;;;;;;;;;4987144;28;89525;-63
2023/12/03 02:15:28;;;;;;;;;;;;;;;;;;4973708;28;89664;-63
2023/12/03 02:17:53;;;;;;;;;;;;;;;;;;4973476;28;89731;-64
2023/12/03 02:20:18;;;;;;;;;;;;;;;;;;4973424;28;89746;-63
2023/12/03 02:22:56;;;;;;;;;;;;;;;;;;4975620;28;89164;-63
2023/12/03 02:25:22;;;;;;;;;;;;;;;;;;4972507;28;89625;-63
2023/12/03 02:27:47;;;;;;;;;;;;;;;;;;4972136;28;89566;-64
2023/12/03 02:30:12;;;;;;;;;;;;;;;;;;4972680;28;89422;-63
2023/12/03 02:32:37;;;;;;;;;;;;;;;;;;4972794;28;89592;-63
2023/12/03 02:35:03;;;;;;;;;;;;;;;;;;4972827;28;89746;-64
2023/12/03 02:37:28;;;;;;;;;;;;;;;;;;4972937;28;89008;-64
2023/12/03 02:39:53;;;;;;;;;;;;;;;;;;4972502;28;89483;-64
2023/12/03 02:42:18;;;;;;;;;;;;;;;;;;4972797;28;89606;-63
2023/12/03 02:44:43;;;;;;;;;;;;;;;;;;4976144;28;89678;-63
2023/12/03 02:47:08;;;;;;;;;;;;;;;;;;4972680;28;89295;-63
2023/12/03 02:49:34;;;;;;;;;;;;;;;;;;4972905;28;89060;-63
2023/12/03 02:51:59;;;;;;;;;;;;;;;;;;4968290;28;89547;-63
2023/12/03 02:54:24;;;;;;;;;;;;;;;;;;4960924;28;89540;-63
2023/12/03 02:56:49;;;;;;;;;;;;;;;;;;4949749;28;89024;-63
2023/12/03 02:59:14;;;;;;;;;;;;;;;;;;4949748;28;89501;-63
2023/12/03 03:01:40;;;;;;;;;;;;;;;;;;4962533;28;89343;-63
2023/12/03 03:04:06;;;;;;;;;;;;;;;;;;4969126;28;89105;-63
2023/12/03 03:06:31;;;;;;;;;;;;;;;;;;4972188;28;89517;-63
2023/12/03 03:08:56;;;;;;;;;;;;;;;;;;4969433;28;89600;-63
2023/12/03 03:11:21;;;;;;;;;;;;;;;;;;4968858;28;89744;-63
2023/12/03 03:13:49;;;;;;;;;;;;;;;;;;4968613;28;89586;-63
2023/12/03 03:16:16;;;;;;;;;;;;;;;;;;4953636;28;89301;-63
2023/12/03 03:18:41;;;;;;;;;;;;;;;;;;4949494;28;89682;-63
2023/12/03 03:21:07;;;;;;;;;;;;;;;;;;4948882;28;89251;-63
2023/12/03 03:23:32;;;;;;;;;;;;;;;;;;4952761;28;89245;-63
2023/12/03 03:25:57;;;;;;;;;;;;;;;;;;4968977;28;89482;-63
2023/12/03 03:28:22;;;;;;;;;;;;;;;;;;4971884;28;90187;-63
2023/12/03 03:30:48;;;;;;;;;;;;;;;;;;4968702;28;90999;-63
2023/12/03 03:33:13;;;;;;;;;;;;;;;;;;4968911;28;89450;-63
2023/12/03 03:35:39;;;;;;;;;;;;;;;;;;4968791;28;89234;-64
2023/12/03 03:38:04;;;;;;;;;;;;;;;;;;4968992;28;89526;-64
2023/12/03 03:40:30;;;;;;;;;;;;;;;;;;4969474;28;89161;-64
2023/12/03 03:42:55;;;;;;;;;;;;;;;;;;4969033;28;89319;-63
2023/12/03 03:45:20;;;;;;;;;;;;;;;;;;4968834;28;89216;-64
2023/12/03 03:47:45;;;;;;;;;;;;;;;;;;4968457;28;89587;-63
2023/12/03 03:50:10;;;;;;;;;;;;;;;;;;4971622;28;89284;-63
2023/12/03 03:52:36;;;;;;;;;;;;;;;;;;4975439;28;89463;-63
2023/12/03 03:55:01;;;;;;;;;;;;;;;;;;4988881;28;89516;-63
2023/12/03 03:57:26;;;;;;;;;;;;;;;;;;4988383;28;89659;-63
2023/12/03 03:59:52;;;;;;;;;;;;;;;;;;4988231;28;89833;-63
2023/12/03 04:02:17;;;;;;;;;;;;;;;;;;4982009;28;89645;-63
2023/12/03 04:04:43;;;;;;;;;;;;;;;;;;4968199;28;89523;-63
2023/12/03 04:07:10;;;;;;;;;;;;;;;;;;4968572;28;89192;-63
2023/12/03 04:09:35;;;;;;;;;;;;;;;;;;4971653;28;89150;-63
2023/12/03 04:12:00;;;;;;;;;;;;;;;;;;4968815;28;89332;-63
2023/12/03 04:14:25;;;;;;;;;;;;;;;;;;4968625;28;89005;-64
2023/12/03 04:16:51;;;;;;;;;;;;;;;;;;4967394;28;90951;-63
2023/12/03 04:19:16;;;;;;;;;;;;;;;;;;4968657;28;89241;-63
2023/12/03 04:21:41;;;;;;;;;;;;;;;;;;4968259;28;89132;-64
2023/12/03 04:24:06;;;;;;;;;;;;;;;;;;4968228;28;89381;-63
2023/12/03 04:26:32;;;;;;;;;;;;;;;;;;4968627;28;90212;-63
2023/12/03 04:28:57;;;;;;;;;;;;;;;;;;4967772;28;89534;-63
2023/12/03 04:31:25;;;;;;;;;;;;;;;;;;4970595;28;89571;-63
2023/12/03 04:33:51;;;;;;;;;;;;;;;;;;4967665;28;89660;-63
2023/12/03 04:36:17;;;;;;;;;;;;;;;;;;4967926;28;89558;-63
2023/12/03 04:38:42;;;;;;;;;;;;;;;;;;4968035;28;89911;-63
2023/12/03 04:41:08;;;;;;;;;;;;;;;;;;4967848;28;89519;-63
2023/12/03 04:43:33;;;;;;;;;;;;;;;;;;4967910;28;89508;-63
2023/12/03 04:46:02;;;;;;;;;;;;;;;;;;4967471;28;89459;-63
2023/12/03 04:48:27;;;;;;;;;;;;;;;;;;4967786;28;89682;-63
2023/12/03 04:50:52;;;;;;;;;;;;;;;;;;4967791;28;89755;-63
2023/12/03 04:53:17;;;;;;;;;;;;;;;;;;4969891;28;89818;-63
2023/12/03 04:55:43;;;;;;;;;;;;;;;;;;4966982;28;89464;-63
2023/12/03 04:58:08;;;;;;;;;;;;;;;;;;4967567;28;89204;-63
2023/12/03 05:00:33;;;;;;;;;;;;;;;;;;4967665;28;89156;-63
2023/12/03 05:02:58;;;;;;;;;;;;;;;;;;4967744;28;89465;-63
2023/12/03 05:05:23;;;;;;;;;;;;;;;;;;4967117;28;90104;-62
2023/12/03 05:07:48;;;;;;;;;;;;;;;;;;4967383;28;89005;-63
2023/12/03 05:10:14;;;;;;;;;;;;;;;;;;4967302;28;89567;-62
2023/12/03 05:12:39;;;;;;;;;;;;;;;;;;4967272;28;89905;-63
2023/12/03 05:15:05;;;;;;;;;;;;;;;;;;4969825;28;89047;-62
2023/12/03 05:17:30;;;;;;;;;;;;;;;;;;4967027;28;90295;-63
2023/12/03 05:19:55;;;;;;;;;;;;;;;;;;4967359;28;89421;-63
2023/12/03 05:22:20;;;;;;;;;;;;;;;;;;4967589;28;89979;-63
2023/12/03 05:24:45;;;;;;;;;;;;;;;;;;4967052;28;89684;-63
2023/12/03 05:27:11;;;;;;;;;;;;;;;;;;4967197;28;89625;-64
2023/12/03 05:29:39;;;;;;;;;;;;;;;;;;4967007;28;89781;-63
2023/12/03 05:32:05;;;;;;;;;;;;;;;;;;4967093;28;89802;-63
2023/12/03 05:34:30;;;;;;;;;;;;;;;;;;4968116;28;89154;-64
2023/12/03 05:36:55;;;;;;;;;;;;;;;;;;4970257;28;90369;-64
2023/12/03 05:39:21;;;;;;;;;;;;;;;;;;4967043;28;90241;-63
2023/12/03 05:41:46;;;;;;;;;;;;;;;;;;4966425;28;90724;-63
2023/12/03 05:44:11;;;;;;;;;;;;;;;;;;4967405;28;89594;-63
2023/12/03 05:46:41;;;;;;;;;;;;;;;;;;4967113;28;89388;-63
2023/12/03 05:49:08;;;;;;;;;;;;;;;;;;4965974;28;90735;-63
2023/12/03 05:51:33;;;;;;;;;;;;;;;;;;4967344;28;90517;-63
2023/12/03 05:53:58;;;;;;;;;;;;;;;;;;4976738;28;89099;-63
2023/12/03 05:56:24;;;;;;;;;;;;;;;;;;4986676;28;90040;-63
2023/12/03 05:58:49;;;;;;;;;;;;;;;;;;4989579;28;89018;-64
2023/12/03 06:01:22;;;;;;;;;;;;;;;;;;4986550;28;89459;-63
2023/12/03 06:03:47;;;;;;;;;;;;;;;;;;4986232;28;89602;-63
2023/12/03 06:06:12;;;;;;;;;;;;;;;;;;4986311;28;89374;-63
2023/12/03 06:08:37;;;;;;;;;;;;;;;;;;4986428;28;90592;-63
2023/12/03 06:11:03;;;;;;;;;;;;;;;;;;4974393;28;89168;-63
2023/12/03 06:13:28;;;;;;;;;;;;;;;;;;4966562;28;89359;-63
2023/12/03 06:15:54;;;;;;;;;;;;;;;;;;4967264;28;89520;-63
2023/12/03 06:18:21;;;;;;;;;;;;;;;;;;4969710;28;90161;-63
2023/12/03 06:20:46;;;;;;;;;;;;;;;;;;4966824;28;89645;-64
2023/12/03 06:23:11;;;;;;;;;;;;;;;;;;4966770;28;90608;-64
2023/12/03 06:25:36;;;;;;;;;;;;;;;;;;4966899;28;90357;-63
2023/12/03 06:28:02;;;;;;;;;;;;;;;;;;4970394;28;90974;-63
2023/12/03 06:30:27;;;;;;;;;;;;;;;;;;4969310;28;89903;-64
2023/12/03 06:32:52;;;;;;;;;;;;;;;;;;4969636;28;89606;-63
2023/12/03 06:35:17;;;;;;;;;;;;;;;;;;4969371;28;89761;-63
2023/12/03 06:37:43;;;;;;;;;;;;;;;;;;4969527;28;89818;-63
2023/12/03 06:40:08;;;;;;;;;;;;;;;;;;4972695;28;89127;-63
2023/12/03 06:42:33;;;;;;;;;;;;;;;;;;4967722;28;89016;-63
2023/12/03 06:44:59;;;;;;;;;;;;;;;;;;4956665;28;89735;-61
2023/12/03 06:47:24;;;;;;;;;;;;;;;;;;4961736;28;89624;-63
2023/12/03 06:49:49;;;;;;;;;;;;;;;;;;4960040;28;89166;-61
2023/12/03 06:52:14;;;;;;;;;;;;;;;;;;4961608;28;89414;-61
2023/12/03 06:54:40;;;;;;;;;;;;;;;;;;4956390;28;89447;-62
2023/12/03 06:57:06;;;;;;;;;;;;;;;;;;4958851;28;90306;-65
2023/12/03 06:59:31;;;;;;;;;;;;;;;;;;4960956;28;90376;-62
2023/12/03 07:01:56;;;;;;;;;;;;;;;;;;4967105;28;89553;-62
2023/12/03 07:04:22;;;;;;;;;;;;;;;;;;4959079;28;89859;-63
2023/12/03 07:06:47;;;;;;;;;;;;;;;;;;4964608;28;90574;-63
2023/12/03 07:09:14;;;;;;;;;;;;;;;;;;4960248;28;89646;-62
2023/12/03 07:11:39;;;;;;;;;;;;;;;;;;4959065;28;90862;-63
2023/12/03 07:14:04;;;;;;;;;;;;;;;;;;4960683;28;89528;-63
2023/12/03 07:16:30;;;;;;;;;;;;;;;;;;4957566;28;89223;-63
2023/12/03 07:18:55;;;;;;;;;;;;;;;;;;4957629;28;89366;-63
2023/12/03 07:21:20;;;;;;;;;;;;;;;;;;4957525;28;89646;-63
2023/12/03 07:23:45;;;;;;;;;;;;;;;;;;4980225;28;90389;-63
2023/12/03 07:26:11;;;;;;;;;;;;;;;;;;4962592;28;91003;-63
2023/12/03 07:28:38;;;;;;;;;;;;;;;;;;4957874;28;91059;-64
2023/12/03 07:31:04;;;;;;;;;;;;;;;;;;4973524;28;90320;-63
2023/12/03 07:33:29;;;;;;;;;;;;;;;;;;4960583;28;92202;-63
2023/12/03 07:35:56;;;;;;;;;;;;;;;;;;4961681;28;90177;-63
2023/12/03 07:38:21;;;;;;;;;;;;;;;;;;4955900;28;90235;-63
2023/12/03 07:40:46;;;;;;;;;;;;;;;;;;4956470;28;90447;-63
2023/12/03 07:43:12;;;;;;;;;;;;;;;;;;4958753;28;90960;-62
2023/12/03 07:45:37;;;;;;;;;;;;;;;;;;4960425;28;89593;-63
2023/12/03 07:48:02;;;;;;;;;;;;;;;;;;4954189;28;89954;-63
2023/12/03 07:50:28;;;;;;;;;;;;;;;;;;4959177;28;89035;-63
2023/12/03 07:52:53;;;;;;;;;;;;;;;;;;4957461;28;89447;-62
2023/12/03 07:55:18;;;;;;;;;;;;;;;;;;4963864;28;89297;-61
2023/12/03 07:57:43;;;;;;;;;;;;;;;;;;4960401;28;89027;-61
2023/12/03 08:00:09;;;;;;;;;;;;;;;;;;4957816;28;89500;-62
2023/12/03 08:02:35;;;;;;;;;;;;;;;;;;4957813;28;89374;-62
2023/12/03 08:05:00;;;;;;;;;;;;;;;;;;4963239;28;89791;-61
2023/12/03 08:07:25;;;;;;;;;;;;;;;;;;4960859;28;90003;-62
2023/12/03 08:09:51;;;;;;;;;;;;;;;;;;4960043;28;90689;-62
2023/12/03 08:12:17;;;;;;;;;;;;;;;;;;4950473;28;90377;-62
2023/12/03 08:14:42;;;;;;;;;;;;;;;;;;4958958;28;89723;-62
2023/12/03 08:17:12;;;;;;;;;;;;;;;;;;4957890;28;89271;-65
2023/12/03 08:19:38;;;;;;;;;;;;;;;;;;4958253;28;90341;-65
2023/12/03 08:22:03;;;;;;;;;;;;;;;;;;4956281;28;89938;-64
2023/12/03 08:24:28;;;;;;;;;;;;;;;;;;4966861;28;89581;-65
2023/12/03 08:26:54;;;;;;;;;;;;;;;;;;4964639;28;89505;-64
2023/12/03 08:29:19;;;;;;;;;;;;;;;;;;4960582;28;89098;-64
2023/12/03 08:31:45;;;;;;;;;;;;;;;;;;4967303;28;90086;-64
2023/12/03 08:34:11;;;;;;;;;;;;;;;;;;4960994;28;90113;-64
2023/12/03 08:36:36;;;;;;;;;;;;;;;;;;4960330;28;90073;-64
2023/12/03 08:39:05;;;;;;;;;;;;;;;;;;4957500;28;90373;-64
2023/12/03 08:41:30;;;;;;;;;;;;;;;;;;4958130;28;89840;-65
2023/12/03 08:43:56;;;;;;;;;;;;;;;;;;4951882;28;89089;-65
2023/12/03 08:46:21;;;;;;;;;;;;;;;;;;4964572;28;91198;-65
2023/12/03 08:48:47;;;;;;;;;;;;;;;;;;4959061;28;90206;-65
2023/12/03 08:51:12;;;;;;;;;;;;;;;;;;4958195;28;89511;-61
2023/12/03 08:53:37;;;;;;;;;;;;;;;;;;4955237;28;89804;-61
2023/12/03 08:56:02;;;;;;;;;;;;;;;;;;4951734;28;89262;-61
2023/12/03 08:58:28;;;;;;;;;;;;;;;;;;4957688;28;89409;-61
2023/12/03 09:00:53;;;;;;;;;;;;;;;;;;4961654;28;89501;-64
2023/12/03 09:03:18;;;;;;;;;;;;;;;;;;4958519;28;89459;-62
2023/12/03 09:05:43;;;;;;;;;;;;;;;;;;4960985;28;89998;-63
2023/12/03 09:08:08;;;;;;;;;;;;;;;;;;4959632;28;90988;-62
2023/12/03 09:10:34;;;;;;;;;;;;;;;;;;4960753;28;89368;-61
2023/12/03 09:12:59;;;;;;;;;;;;;;;;;;4961330;28;89088;-62
2023/12/03 09:15:24;;;;;;;;;;;;;;;;;;4961216;28;89451;-61
2023/12/03 09:17:49;;;;;;;;;;;;;;;;;;4955632;28;89957;-66
2023/12/03 09:20:14;;;;;;;;;;;;;;;;;;4959034;28;90312;-62
2023/12/03 09:22:40;;;;;;;;;;;;;;;;;;4960489;28;89561;-62
2023/12/03 09:25:06;;;;;;;;;;;;;;;;;;4961257;28;89591;-63
2023/12/03 09:27:33;;;;;;;;;;;;;;;;;;4953341;28;90362;-62
2023/12/03 09:29:58;;;;;;;;;;;;;;;;;;4954945;28;89458;-62
2023/12/03 09:32:23;;;;;;;;;;;;;;;;;;4956735;28;89536;-62
2023/12/03 09:34:48;;;;;;;;;;;;;;;;;;4955161;28;89228;-62
2023/12/03 09:37:14;;;;;;;;;;;;;;;;;;4962356;28;89277;-62
2023/12/03 09:39:39;;;;;;;;;;;;;;;;;;4961730;28;89133;-62
2023/12/03 09:42:07;;;;;;;;;;;;;;;;;;4957591;28;88990;-62
2023/12/03 09:45:03;;;;;;;;;;;;;;;;;;4957619;28;89525;-62
2023/12/03 09:47:32;;;;;;;;;;;;;;;;;;4947025;28;90154;-62
2023/12/03 09:49:57;;;;;;;;;;;;;;;;;;4960379;28;89044;-62
2023/12/03 09:52:24;;;;;;;;;;;;;;;;;;4954860;28;89752;-62
2023/12/03 09:54:51;;;;;;;;;;;;;;;;;;4964644;28;89096;-62
2023/12/03 09:57:17;;;;;;;;;;;;;;;;;;4962301;28;90953;-64
2023/12/03 09:59:48;;;;;;;;;;;;;;;;;;4958396;28;89972;-62
2023/12/03 10:02:14;;;;;;;;;;;;;;;;;;4959447;28;89567;-61
2023/12/03 10:04:40;;;;;;;;;;;;;;;;;;4960340;28;90682;-62
2023/12/03 10:07:06;;;;;;;;;;;;;;;;;;4964949;28;89351;-61
2023/12/03 10:09:32;;;;;;;;;;;;;;;;;;4960596;28;89496;-62
2023/12/03 10:12:00;;;;;;;;;;;;;;;;;;4960034;28;90061;-62
2023/12/03 10:14:26;;;;;;;;;;;;;;;;;;4964541;28;90597;-62
2023/12/03 10:16:51;;;;;;;;;;;;;;;;;;4958665;28;90864;-62
2023/12/03 10:19:23;;;;;;;;;;;;;;;;;;4958559;28;89517;-62
2023/12/03 10:21:49;;;;;;;;;;;;;;;;;;4959966;28;89035;-62
2023/12/03 10:24:14;;;;;;;;;;;;;;;;;;4963169;28;89540;-64
2023/12/03 10:26:48;;;;;;;;;;;;;;;;;;4956360;28;89124;-63
2023/12/03 10:29:15;;;;;;;;;;;;;;;;;;4960458;28;89014;-61
2023/12/03 10:31:41;;;;;;;;;;;;;;;;;;4966630;28;90865;-63
2023/12/03 10:34:07;;;;;;;;;;;;;;;;;;4958238;28;90099;-62
2023/12/03 10:36:32;;;;;;;;;;;;;;;;;;4968135;28;89615;-62
2023/12/03 10:38:57;;;;;;;;;;;;;;;;;;4960031;28;89280;-62
2023/12/03 10:41:23;;;;;;;;;;;;;;;;;;4960034;28;89258;-62
2023/12/03 10:43:50;;;;;;;;;;;;;;;;;;4957438;28;90610;-62
2023/12/03 10:46:15;;;;;;;;;;;;;;;;;;4963857;28;90311;-62
2023/12/03 10:48:41;;;;;;;;;;;;;;;;;;4967510;28;88959;-62
2023/12/03 10:51:07;;;;;;;;;;;;;;;;;;4962928;28;89517;-62
2023/12/03 10:53:34;;;;;;;;;;;;;;;;;;4958487;28;90303;-61
2023/12/03 10:56:03;;;;;;;;;;;;;;;;;;4962544;28;89507;-61
2023/12/03 10:58:29;;;;;;;;;;;;;;;;;;4960639;28;89653;-63
2023/12/03 11:00:59;;;;;;;;;;;;;;;;;;4961979;28;89267;-62
2023/12/03 11:03:33;;;;;;;;;;;;;;;;;;4959785;28;89582;-61
2023/12/03 11:06:02;;;;;;;;;;;;;;;;;;4960621;28;89371;-62
2023/12/03 11:08:28;;;;;;;;;;;;;;;;;;4956476;28;89850;-63
2023/12/03 11:10:53;;;;;;;;;;;;;;;;;;4965252;28;90197;-61
2023/12/03 11:13:19;;;;;;;;;;;;;;;;;;4962756;28;89496;-61
2023/12/03 11:15:45;;;;;;;;;;;;;;;;;;4962518;28;89481;-61
2023/12/03 11:18:11;;;;;;;;;;;;;;;;;;4957545;28;89554;-62
2023/12/03 11:20:38;;;;;;;;;;;;;;;;;;4958623;28;89507;-65
2023/12/03 11:23:23;;;;;;;;;;;;;;;;;;4959583;28;89568;-62
2023/12/03 11:26:02;;;;;;;;;;;;;;;;;;4959592;28;90304;-62
2023/12/03 11:28:27;;;;;;;;;;;;;;;;;;4952212;28;89339;-62
2023/12/03 11:30:54;;;;;;;;;;;;;;;;;;4956829;28;89764;-64
2023/12/03 11:33:20;;;;;;;;;;;;;;;;;;4975085;28;90088;-61
2023/12/03 11:35:45;;;;;;;;;;;;;;;;;;4961691;28;89063;-61
2023/12/03 11:38:21;;;;;;;;;;;;;;;;;;4961767;28;89578;-61
2023/12/03 11:40:46;;;;;;;;;;;;;;;;;;4965641;28;89303;-61
2023/12/03 11:43:24;;;;;;;;;;;;;;;;;;4969932;28;88945;-61
2023/12/03 11:45:53;;;;;;;;;;;;;;;;;;4966098;28;91408;-61
2023/12/03 11:48:19;;;;;;;;;;;;;;;;;;4964201;28;90073;-61
2023/12/03 11:50:46;;;;;;;;;;;;;;;;;;4966410;28;90661;-61
2023/12/03 11:53:13;;;;;;;;;;;;;;;;;;4959544;28;89783;-61
2023/12/03 11:55:42;;;;;;;;;;;;;;;;;;4964545;28;90695;-61
2023/12/03 11:58:08;;;;;;;;;;;;;;;;;;4966229;28;89673;-61
2023/12/03 12:00:34;;;;;;;;;;;;;;;;;;4959831;28;89233;-61
2023/12/03 12:03:00;;;;;;;;;;;;;;;;;;4967611;28;89438;-61
2023/12/03 12:05:25;;;;;;;;;;;;;;;;;;4969660;28;90166;-61
2023/12/03 12:08:01;;;;;;;;;;;;;;;;;;4958846;28;90332;-61
2023/12/03 12:10:31;;;;;;;;;;;;;;;;;;4958983;28;90926;-61
2023/12/03 12:12:57;;;;;;;;;;;;;;;;;;4951919;28;90017;-61
2023/12/03 12:15:23;;;;;;;;;;;;;;;;;;4956951;28;89745;-61
2023/12/03 12:17:48;;;;;;;;;;;;;;;;;;4958697;28;90822;-61
2023/12/03 12:20:21;;;;;;;;;;;;;;;;;;4964484;28;89882;-61
2023/12/03 12:22:46;;;;;;;;;;;;;;;;;;4967389;28;89931;-61
2023/12/03 12:25:12;;;;;;;;;;;;;;;;;;4962888;28;89487;-61
2023/12/03 12:27:37;;;;;;;;;;;;;;;;;;4961044;28;90301;-61
2023/12/03 12:30:03;;;;;;;;;;;;;;;;;;4961205;28;89527;-62
2023/12/03 12:32:28;;;;;;;;;;;;;;;;;;4962929;28;90538;-61
2023/12/03 12:34:53;;;;;;;;;;;;;;;;;;4963286;28;90668;-61
2023/12/03 12:37:21;;;;;;;;;;;;;;;;;;4961230;28;90530;-63
